Time;durP1;ratioP1;P1;durP2;ratioP2;P2;SDS_P1;SDS_P2;PMS_P1;PMS_P2;Temp;Humidity;BMP_temperature;BMP_pressure;BME280_temperature;BME280_humidity;BME280_pressure;Samples;Min_cycle;Max_cycle;Signal;HPM_P1;HPM_P2
2023/04/07 00:01:22;;;;;;;12.00;5.70;;;6.20;99.90;;;;;;6250341;23;20199;-83
2023/04/07 00:03:47;;;;;;;18.43;9.30;;;6.10;99.90;;;;;;6249632;23;20148;-86
2023/04/07 00:06:13;;;;;;;12.03;8.47;;;6.20;99.90;;;;;;6249688;23;20651;-86
2023/04/07 00:08:39;;;;;;;17.00;8.55;;;6.20;99.90;;;;;;6250789;23;20179;-84
2023/04/07 00:11:05;;;;;;;28.70;6.67;;;6.20;99.90;;;;;;6251938;22;20223;-84
2023/04/07 00:13:30;;;;;;;17.30;10.10;;;6.10;99.90;;;;;;6253174;22;20463;-84
2023/04/07 00:15:56;;;;;;;14.83;7.13;;;6.20;99.90;;;;;;6276864;22;20241;-85
2023/04/07 00:18:21;;;;;;;13.73;8.13;;;5.30;99.90;;;;;;6251454;23;20168;-85
2023/04/07 00:20:47;;;;;;;14.57;8.30;;;6.20;99.90;;;;;;6253076;23;20151;-85
2023/04/07 00:23:13;;;;;;;11.07;6.00;;;6.30;99.90;;;;;;6252763;23;20139;-84
2023/04/07 00:25:38;;;;;;;12.60;6.17;;;6.20;99.90;;;;;;6253401;23;20179;-84
2023/04/07 00:28:04;;;;;;;11.97;8.40;;;6.20;99.90;;;;;;6277070;22;20211;-85
2023/04/07 00:30:29;;;;;;;16.97;8.60;;;6.30;99.90;;;;;;6251356;23;20515;-85
2023/04/07 00:32:55;;;;;;;15.47;8.23;;;6.20;99.90;;;;;;6276306;22;20147;-85
2023/04/07 00:35:21;;;;;;;14.10;8.13;;;6.30;99.90;;;;;;6275861;22;20155;-84
2023/04/07 00:37:46;;;;;;;13.40;6.40;;;6.30;99.90;;;;;;6275264;22;20375;-84
2023/04/07 00:40:12;;;;;;;10.30;6.30;;;6.40;99.90;;;;;;6276048;22;20173;-84
2023/04/07 00:42:37;;;;;;;14.07;8.73;;;6.30;99.90;;;;;;6251516;23;20153;-85
2023/04/07 00:45:03;;;;;;;13.23;6.77;;;6.40;99.90;;;;;;6252081;23;20149;-84
2023/04/07 00:47:29;;;;;;;12.30;7.60;;;6.40;99.90;;;;;;6274863;22;20157;-84
2023/04/07 00:49:55;;;;;;;11.13;6.97;;;6.40;99.90;;;;;;6251967;23;20752;-85
2023/04/07 00:52:27;;;;;;;15.73;7.83;;;6.30;99.90;;;;;;6277268;22;20171;-85
2023/04/07 00:54:54;;;;;;;11.55;7.72;;;6.40;99.90;;;;;;6254232;22;20151;-86
2023/04/07 00:57:21;;;;;;;15.90;8.85;;;6.30;99.90;;;;;;6277955;22;20157;-86
2023/04/07 00:59:48;;;;;;;14.30;7.40;;;6.30;99.90;;;;;;6251977;23;20188;-86
2023/04/07 01:03:00;;;;;;;14.10;7.53;;;6.30;99.90;;;;;;6252698;23;20688;-86
2023/04/07 01:05:45;;;;;;;12.77;7.85;;;6.20;99.90;;;;;;6130686;23;20155;-86
2023/04/07 01:08:19;;;;;;;10.23;5.88;;;6.20;99.90;;;;;;6130631;23;20144;-86
2023/04/07 01:10:50;;;;;;;14.60;6.90;;;6.20;99.90;;;;;;6209070;23;20187;-86
2023/04/07 01:13:25;;;;;;;11.30;6.00;;;6.10;99.90;;;;;;6252230;23;20168;-86
2023/04/07 01:15:55;;;;;;;14.85;8.25;;;6.10;99.90;;;;;;6252778;22;20144;-86
2023/04/07 01:18:30;;;;;;;11.57;7.50;;;6.10;99.90;;;;;;6250398;23;20145;-85
2023/04/07 01:21:04;;;;;;;14.30;7.28;;;6.10;99.90;;;;;;6251486;22;20136;-84
2023/04/07 01:23:48;;;;;;;18.95;7.95;;;6.10;99.90;;;;;;6247655;22;20500;-84
2023/04/07 01:26:20;;;;;;;14.75;7.70;;;6.10;99.90;;;;;;6272771;22;20172;-83
2023/04/07 01:29:02;;;;;;;14.93;6.90;;;6.10;99.90;;;;;;6247844;23;20168;-84
2023/04/07 01:31:29;;;;;;;11.70;6.45;;;6.10;99.90;;;;;;6272433;22;20239;-84
2023/04/07 01:33:58;;;;;;;12.93;7.82;;;6.00;99.90;;;;;;6247290;23;20552;-83
2023/04/07 01:36:27;;;;;;;11.68;7.07;;;6.00;99.90;;;;;;6249596;22;20144;-84
2023/04/07 01:38:53;;;;;;;10.75;6.97;;;6.60;99.90;;;;;;6249081;22;20169;-84
2023/04/07 01:41:20;;;;;;;15.60;9.32;;;6.00;99.90;;;;;;6249267;22;20148;-83
2023/04/07 01:43:47;;;;;;;22.55;8.27;;;6.00;99.90;;;;;;6274538;22;20153;-84
2023/04/07 01:46:13;;;;;;;18.77;10.82;;;6.00;99.90;;;;;;6249839;23;20176;-83
2023/04/07 01:48:40;;;;;;;19.95;11.10;;;6.00;99.90;;;;;;6250144;23;20619;-83
2023/04/07 01:51:06;;;;;;;19.23;10.75;;;6.00;99.90;;;;;;6253139;22;20580;-85
2023/04/07 01:53:36;;;;;;;21.92;9.13;;;6.10;99.90;;;;;;6277420;22;20172;-84
2023/04/07 01:56:02;;;;;;;16.55;9.80;;;6.10;99.90;;;;;;6278471;22;20657;-85
2023/04/07 01:58:28;;;;;;;11.70;6.43;;;6.10;99.90;;;;;;6255587;22;20152;-85
2023/04/07 02:00:54;;;;;;;17.67;9.10;;;6.10;99.90;;;;;;6281832;22;20148;-85
2023/04/07 02:03:22;;;;;;;16.00;8.20;;;6.10;99.90;;;;;;6283494;22;20151;-85
2023/04/07 02:05:51;;;;;;;16.70;8.85;;;6.10;99.90;;;;;;6283267;22;20148;-86
2023/04/07 02:08:20;;;;;;;15.80;8.85;;;6.10;99.90;;;;;;6279928;22;20223;-84
2023/04/07 02:10:47;;;;;;;18.55;9.75;;;6.10;99.90;;;;;;6277400;22;20198;-84
2023/04/07 02:13:17;;;;;;;17.17;8.70;;;6.20;99.90;;;;;;6279483;22;20148;-84
2023/04/07 02:15:44;;;;;;;15.65;9.27;;;6.20;99.90;;;;;;6280751;22;20136;-84
2023/04/07 02:18:13;;;;;;;16.75;9.07;;;6.20;99.90;;;;;;6282054;22;20140;-84
2023/04/07 02:20:40;;;;;;;15.50;10.18;;;6.20;99.90;;;;;;6282162;22;20174;-84
2023/04/07 02:23:09;;;;;;;12.82;7.75;;;6.20;99.90;;;;;;6254622;22;20152;-84
2023/04/07 02:25:37;;;;;;;17.00;10.30;;;6.20;99.90;;;;;;6282175;22;20979;-84
2023/04/07 02:28:03;;;;;;;20.98;11.75;;;6.20;99.90;;;;;;6282035;22;20148;-84
2023/04/07 02:30:30;;;;;;;16.73;11.65;;;6.30;99.90;;;;;;6255195;22;20194;-84
2023/04/07 02:32:56;;;;;;;17.73;11.00;;;6.30;99.90;;;;;;6282668;22;20252;-84
2023/04/07 02:35:22;;;;;;;22.73;12.10;;;6.30;99.90;;;;;;6281528;22;20571;-84
2023/04/07 02:37:48;;;;;;;25.15;11.65;;;6.40;99.90;;;;;;6280930;22;20148;-84
2023/04/07 02:40:14;;;;;;;21.45;11.43;;;6.50;99.90;;;;;;6281273;22;20179;-84
2023/04/07 02:42:40;;;;;;;19.02;11.02;;;6.50;99.90;;;;;;6281741;22;20148;-84
2023/04/07 02:45:07;;;;;;;22.70;11.70;;;6.50;99.90;;;;;;6280356;22;20182;-82
2023/04/07 02:47:34;;;;;;;19.23;11.02;;;6.60;99.90;;;;;;6280044;22;20209;-83
2023/04/07 02:49:59;;;;;;;19.33;10.60;;;6.70;99.90;;;;;;6277998;22;20183;-82
2023/04/07 02:52:25;;;;;;;17.53;10.60;;;6.70;99.90;;;;;;6278227;22;20154;-82
2023/04/07 02:54:51;;;;;;;17.30;9.77;;;6.80;99.90;;;;;;6279897;22;20156;-83
2023/04/07 02:57:16;;;;;;;23.27;11.20;;;6.90;99.90;;;;;;6280481;22;20534;-84
2023/04/07 02:59:42;;;;;;;22.63;10.80;;;6.80;99.90;;;;;;6277352;22;20449;-84
2023/04/07 03:02:07;;;;;;;16.90;9.87;;;6.80;99.90;;;;;;6278207;22;20152;-83
2023/04/07 03:04:33;;;;;;;19.73;9.97;;;6.90;99.90;;;;;;6278417;22;20147;-83
2023/04/07 03:06:59;;;;;;;16.20;10.37;;;7.00;99.90;;;;;;6276300;22;20232;-84
2023/04/07 03:09:25;;;;;;;17.90;10.90;;;7.20;99.90;;;;;;6280506;22;20172;-84
2023/04/07 03:11:51;;;;;;;19.43;11.70;;;7.20;99.90;;;;;;6279989;22;20203;-86
2023/04/07 03:14:16;;;;;;;19.70;10.80;;;7.20;99.90;;;;;;6277556;22;20375;-83
2023/04/07 03:16:42;;;;;;;21.57;11.20;;;7.20;99.90;;;;;;6279746;22;20172;-86
2023/04/07 03:19:08;;;;;;;15.23;10.23;;;7.20;99.90;;;;;;6276342;22;20227;-83
2023/04/07 03:21:35;;;;;;;18.08;9.95;;;7.10;99.90;;;;;;6278098;22;20151;-83
2023/04/07 03:24:01;;;;;;;17.15;10.88;;;7.10;99.90;;;;;;6276822;22;20148;-81
2023/04/07 03:26:26;;;;;;;19.10;10.43;;;7.10;99.90;;;;;;6279351;22;20144;-82
2023/04/07 03:28:52;;;;;;;19.93;11.43;;;7.20;99.90;;;;;;6276904;22;20252;-84
2023/04/07 03:31:17;;;;;;;19.60;10.57;;;7.40;99.90;;;;;;6277567;22;20159;-85
2023/04/07 03:33:43;;;;;;;19.60;10.87;;;7.30;99.90;;;;;;6277394;22;20218;-84
2023/04/07 03:36:09;;;;;;;14.73;10.33;;;;;;;;;;6274383;22;20163;-83
2023/04/07 03:38:35;;;;;;;17.83;9.85;;;7.30;99.90;;;;;;6277756;22;20447;-85
2023/04/07 03:41:00;;;;;;;18.97;10.87;;;7.40;99.90;;;;;;6276859;22;20159;-85
2023/04/07 03:43:26;;;;;;;18.33;10.67;;;7.30;99.90;;;;;;6280387;22;20148;-85
2023/04/07 03:45:53;;;;;;;20.33;11.60;;;7.20;99.90;;;;;;6279402;22;20519;-84
2023/04/07 03:48:18;;;;;;;24.10;11.93;;;7.30;99.90;;;;;;6279070;22;20156;-85
2023/04/07 03:50:45;;;;;;;21.93;10.10;;;7.20;99.90;;;;;;6280167;22;20232;-85
2023/04/07 03:53:10;;;;;;;18.67;11.43;;;7.30;99.90;;;;;;6281399;22;20129;-85
2023/04/07 03:55:36;;;;;;;17.27;11.07;;;7.30;99.90;;;;;;6279967;22;20148;-85
2023/04/07 03:58:01;;;;;;;19.63;9.77;;;7.30;99.90;;;;;;6280357;22;20656;-84
2023/04/07 04:00:27;;;;;;;18.80;10.67;;;7.30;99.90;;;;;;6282379;22;20217;-85
2023/04/07 04:02:52;;;;;;;18.80;10.60;;;7.30;99.90;;;;;;6280017;22;20150;-85
2023/04/07 04:05:18;;;;;;;18.17;11.20;;;7.30;99.90;;;;;;6281233;22;20151;-86
2023/04/07 04:07:44;;;;;;;17.37;10.60;;;7.20;99.90;;;;;;6281198;22;20148;-83
2023/04/07 04:10:10;;;;;;;17.13;10.00;;;7.20;99.90;;;;;;6254957;22;20285;-85
2023/04/07 04:12:35;;;;;;;16.90;11.18;;;7.40;99.90;;;;;;6278963;22;20587;-84
2023/04/07 04:15:01;;;;;;;16.50;9.97;;;7.40;99.90;;;;;;6280938;22;20154;-85
2023/04/07 04:17:26;;;;;;;15.13;10.03;;;7.40;99.90;;;;;;6280726;22;20144;-87
2023/04/07 04:19:53;;;;;;;16.30;9.40;;;7.40;99.90;;;;;;6278206;22;20199;-87
2023/04/07 04:22:18;;;;;;;16.88;9.63;;;7.30;99.90;;;;;;6279014;22;20155;-87
2023/04/07 04:24:44;;;;;;;19.30;10.00;;;7.30;99.90;;;;;;6278605;22;20234;-87
2023/04/07 04:27:10;;;;;;;16.30;9.57;;;7.10;99.90;;;;;;6280612;22;20152;-88
2023/04/07 04:29:35;;;;;;;15.47;11.40;;;7.20;99.90;;;;;;6254564;22;20202;-86
2023/04/07 04:32:01;;;;;;;19.30;10.93;;;7.20;99.90;;;;;;6279054;22;20143;-85
2023/04/07 04:34:26;;;;;;;20.13;10.17;;;7.20;99.90;;;;;;6279500;22;20152;-83
2023/04/07 04:36:52;;;;;;;18.50;10.20;;;7.30;99.90;;;;;;6281233;22;20144;-86
2023/04/07 04:39:17;;;;;;;17.77;11.60;;;7.40;99.90;;;;;;6282244;22;20163;-85
2023/04/07 04:41:44;;;;;;;14.50;8.37;;;7.40;99.90;;;;;;6282730;22;20144;-82
2023/04/07 04:44:09;;;;;;;18.40;11.15;;;7.50;99.90;;;;;;6279468;22;20233;-83
2023/04/07 04:46:35;;;;;;;18.43;9.50;;;7.60;99.90;;;;;;6277737;22;20545;-85
2023/04/07 04:49:01;;;;;;;14.60;9.60;;;7.40;99.90;;;;;;6249145;22;20259;-85
2023/04/07 04:51:26;;;;;;;16.17;9.53;;;7.30;99.90;;;;;;6250746;22;20379;-85
2023/04/07 04:53:52;;;;;;;18.67;11.90;;;7.30;99.90;;;;;;6279008;22;20148;-85
2023/04/07 04:56:17;;;;;;;15.17;10.03;;;7.40;99.90;;;;;;6280328;22;20140;-82
2023/04/07 04:58:45;;;;;;;20.53;11.30;;;7.50;99.90;;;;;;6278306;22;20179;-86
2023/04/07 05:01:11;;;;;;;22.52;10.43;;;7.30;99.90;;;;;;6277240;22;20148;-85
2023/04/07 05:03:37;;;;;;;15.73;10.88;;;7.20;99.90;;;;;;6277642;22;20143;-86
2023/04/07 05:06:03;;;;;;;19.37;11.30;;;7.00;99.90;;;;;;6278839;22;20145;-84
2023/04/07 05:08:28;;;;;;;15.57;10.10;;;6.90;99.90;;;;;;6278371;22;20587;-84
2023/04/07 05:10:54;;;;;;;19.97;11.20;;;7.00;99.90;;;;;;6276276;22;20263;-85
2023/04/07 05:13:20;;;;;;;19.02;11.35;;;7.00;99.90;;;;;;6277875;22;20129;-82
2023/04/07 05:15:46;;;;;;;18.67;11.20;;;7.00;99.90;;;;;;6276388;22;20215;-83
2023/04/07 05:18:11;;;;;;;18.33;10.40;;;7.00;99.90;;;;;;6246108;22;20152;-83
2023/04/07 05:20:37;;;;;;;18.37;9.97;;;7.00;99.90;;;;;;6272256;22;20224;-83
2023/04/07 05:23:03;;;;;;;15.27;10.40;;;6.90;99.90;;;;;;6271842;22;20150;-83
2023/04/07 05:25:28;;;;;;;18.30;11.10;;;6.90;99.90;;;;;;6273412;22;20139;-83
2023/04/07 05:27:54;;;;;;;18.20;10.00;;;6.90;99.90;;;;;;6273387;22;21133;-82
2023/04/07 05:30:20;;;;;;;16.27;9.50;;;6.80;99.90;;;;;;6275771;22;20172;-82
2023/04/07 05:32:45;;;;;;;17.83;10.77;;;6.80;99.90;;;;;;6277286;22;20144;-83
2023/04/07 05:35:11;;;;;;;17.30;11.40;;;6.80;99.90;;;;;;6274289;22;20167;-83
2023/04/07 05:37:36;;;;;;;18.23;10.97;;;6.80;99.90;;;;;;6246881;22;20152;-83
2023/04/07 05:40:02;;;;;;;20.17;10.77;;;6.80;99.90;;;;;;6271993;22;20254;-83
2023/04/07 05:42:28;;;;;;;16.47;10.13;;;6.80;99.90;;;;;;6271762;22;20147;-82
2023/04/07 05:44:53;;;;;;;23.03;12.70;;;6.80;99.90;;;;;;6271027;22;20160;-82
2023/04/07 05:47:19;;;;;;;18.97;11.87;;;6.70;99.90;;;;;;6275510;22;20610;-82
2023/04/07 05:49:47;;;;;;;20.57;10.70;;;6.80;99.90;;;;;;6274427;22;20309;-83
2023/04/07 05:52:13;;;;;;;17.77;9.18;;;6.90;99.90;;;;;;6275169;22;20147;-82
2023/04/07 05:54:41;;;;;;;18.80;10.20;;;6.80;99.90;;;;;;6276572;22;20486;-82
2023/04/07 05:57:07;;;;;;;24.30;10.48;;;6.80;99.90;;;;;;6276721;22;20374;-82
2023/04/07 05:59:36;;;;;;;20.55;14.45;;;6.80;99.90;;;;;;6277414;22;20183;-81
2023/04/07 06:02:02;;;;;;;23.23;13.82;;;6.80;99.90;;;;;;6276733;22;20144;-81
2023/04/07 06:04:28;;;;;;;18.20;11.70;;;6.80;99.90;;;;;;6274776;22;20147;-81
2023/04/07 06:06:54;;;;;;;18.90;10.70;;;7.00;99.90;;;;;;6275796;22;20191;-80
2023/04/07 06:09:23;;;;;;;16.43;10.50;;;7.10;99.90;;;;;;6276516;22;20502;-80
2023/04/07 06:11:48;;;;;;;18.27;9.70;;;7.00;99.90;;;;;;6278735;22;20158;-80
2023/04/07 06:14:14;;;;;;;20.83;11.47;;;7.30;99.90;;;;;;6278966;22;20207;-81
2023/04/07 06:16:39;;;;;;;15.20;8.90;;;7.70;99.90;;;;;;6279593;22;20144;-81
2023/04/07 06:19:06;;;;;;;15.47;9.87;;;7.70;99.90;;;;;;6278631;22;20485;-81
2023/04/07 06:21:31;;;;;;;16.63;9.30;;;8.00;99.90;;;;;;6279131;22;20189;-82
2023/04/07 06:23:57;;;;;;;16.20;9.77;;;8.20;99.90;;;;;;6279818;22;20583;-81
2023/04/07 06:26:23;;;;;;;15.30;8.97;;;9.10;99.90;;;;;;6276739;22;20716;-80
2023/04/07 06:28:48;;;;;;;20.30;18.03;;;11.00;99.90;;;;;;6278010;22;20167;-79
2023/04/07 06:31:14;;;;;;;20.00;15.17;;;13.00;99.90;;;;;;6278980;22;20168;-80
2023/04/07 06:33:40;;;;;;;37.77;26.00;;;15.60;99.90;;;;;;6278892;22;20233;-81
2023/04/07 06:36:05;;;;;;;18.17;12.40;;;17.50;99.90;;;;;;6278831;22;20144;-81
2023/04/07 06:38:31;;;;;;;14.13;10.30;;;21.50;99.90;;;;;;6276935;22;20220;-78
2023/04/07 06:40:57;;;;;;;11.50;9.10;;;21.80;99.90;;;;;;6277043;22;20485;-78
2023/04/07 06:43:22;;;;;;;16.17;10.57;;;24.20;96.10;;;;;;6276964;22;20152;-79
2023/04/07 06:45:48;;;;;;;13.50;9.93;;;25.10;92.10;;;;;;6276107;22;20152;-79
2023/04/07 06:48:13;;;;;;;14.07;9.90;;;25.10;84.90;;;;;;6272485;22;20167;-79
2023/04/07 06:50:39;;;;;;;13.13;8.83;;;23.40;78.00;;;;;;6276564;22;20244;-79
2023/04/07 06:53:04;;;;;;;10.60;8.40;;;20.80;82.00;;;;;;6250384;22;20605;-79
2023/04/07 06:55:30;;;;;;;12.93;9.23;;;20.80;82.90;;;;;;6250208;22;20586;-80
2023/04/07 06:57:55;;;;;;;9.07;7.80;;;22.60;87.20;;;;;;6279684;22;20545;-80
2023/04/07 07:00:25;;;;;;;9.20;8.17;;;25.50;80.30;;;;;;6275478;22;20187;-82
2023/04/07 07:02:50;;;;;;;12.00;8.40;;;27.60;72.40;;;;;;6277416;22;20144;-80
2023/04/07 07:05:16;;;;;;;10.40;8.03;;;29.90;61.10;;;;;;6248557;22;20409;-80
2023/04/07 07:07:41;;;;;;;11.80;8.37;;;29.20;53.90;;;;;;6270884;22;20153;-80
2023/04/07 07:10:09;;;;;;;12.90;9.10;;;26.10;53.60;;;;;;6277905;22;20211;-79
2023/04/07 07:12:35;;;;;;;11.20;8.33;;;22.90;58.40;;;;;;6278107;22;20144;-79
2023/04/07 07:15:00;;;;;;;12.77;8.93;;;21.20;64.80;;;;;;6277912;22;20470;-79
2023/04/07 07:17:26;;;;;;;9.00;8.10;;;21.70;72.30;;;;;;6278548;22;20231;-79
2023/04/07 07:19:51;;;;;;;11.20;8.03;;;21.30;68.50;;;;;;6278280;22;20173;-82
2023/04/07 07:22:17;;;;;;;10.73;8.10;;;20.50;71.90;;;;;;6275798;22;20144;-80
2023/04/07 07:24:43;;;;;;;7.97;7.10;;;19.20;74.20;;;;;;6275483;22;20148;-80
2023/04/07 07:27:08;;;;;;;8.43;6.80;;;18.60;79.80;;;;;;6275033;22;20148;-81
2023/04/07 07:29:34;;;;;;;11.70;7.17;;;19.50;80.80;;;;;;6277775;22;20180;-81
2023/04/07 07:31:59;;;;;;;10.83;6.17;;;21.30;79.10;;;;;;6275719;22;20194;-79
2023/04/07 07:34:25;;;;;;;9.43;7.20;;;22.60;73.80;;;;;;6275717;22;20214;-79
2023/04/07 07:36:50;;;;;;;9.50;7.30;;;23.30;71.40;;;;;;6275990;22;20136;-80
2023/04/07 07:39:16;;;;;;;10.70;6.47;;;23.60;65.60;;;;;;6246095;22;20214;-82
2023/04/07 07:41:41;;;;;;;7.77;7.03;;;24.40;67.50;;;;;;6247427;22;20152;-81
2023/04/07 07:44:07;;;;;;;11.20;7.23;;;23.40;61.00;;;;;;6272509;22;20147;-81
2023/04/07 07:46:33;;;;;;;7.13;6.37;;;25.40;66.40;;;;;;6272340;22;20190;-81
2023/04/07 07:48:58;;;;;;;8.40;7.10;;;28.80;54.70;;;;;;6271759;22;20523;-81
2023/04/07 07:51:24;;;;;;;8.23;6.60;;;28.60;52.00;;;;;;6270754;22;20138;-81
2023/04/07 07:53:50;;;;;;;6.97;5.90;;;;;;;;;;6269327;22;20223;-81
2023/04/07 07:56:15;;;;;;;11.53;6.83;;;27.60;51.60;;;;;;6270559;22;20150;-81
2023/04/07 07:58:41;;;;;;;7.53;5.90;;;27.00;53.20;;;;;;6272757;22;20414;-81
2023/04/07 08:01:06;;;;;;;7.33;6.10;;;27.10;53.30;;;;;;6274155;22;20173;-81
2023/04/07 08:03:32;;;;;;;9.60;6.60;;;27.50;51.80;;;;;;6265431;22;20155;-81
2023/04/07 08:05:57;;;;;;;10.53;6.73;;;28.70;52.20;;;;;;6270841;22;20147;-83
2023/04/07 08:08:23;;;;;;;8.00;7.20;;;28.80;47.40;;;;;;6243818;22;20162;-81
2023/04/07 08:10:48;;;;;;;7.97;7.20;;;28.80;48.10;;;;;;6271036;22;20264;-81
2023/04/07 08:13:14;;;;;;;6.57;5.83;;;24.80;49.80;;;;;;6272190;22;20167;-81
2023/04/07 08:15:40;;;;;;;7.80;7.00;;;24.70;50.40;;;;;;6271350;22;20203;-83
2023/04/07 08:18:06;;;;;;;6.10;5.50;;;24.40;53.60;;;;;;6270782;22;20373;-81
2023/04/07 08:20:32;;;;;;;6.73;5.60;;;24.40;56.10;;;;;;6272487;22;20172;-80
2023/04/07 08:22:58;;;;;;;6.33;5.17;;;24.70;55.10;;;;;;6268700;22;20378;-82
2023/04/07 08:25:24;;;;;;;6.60;5.13;;;23.40;55.30;;;;;;6269691;22;20394;-81
2023/04/07 08:27:50;;;;;;;7.90;5.90;;;21.00;58.50;;;;;;6272382;22;21086;-82
2023/04/07 08:30:15;;;;;;;7.43;6.07;;;20.60;61.40;;;;;;6271895;22;20418;-82
2023/04/07 08:32:43;;;;;;;8.87;5.70;;;19.00;63.70;;;;;;6270071;22;20167;-82
2023/04/07 08:35:10;;;;;;;9.93;6.07;;;18.20;69.90;;;;;;6267180;22;20159;-81
2023/04/07 08:37:38;;;;;;;5.07;4.53;;;17.90;71.10;;;;;;6273706;22;21162;-81
2023/04/07 08:40:05;;;;;;;4.30;3.90;;;18.50;73.50;;;;;;6270779;22;20532;-81
2023/04/07 08:42:32;;;;;;;12.20;3.53;;;18.40;74.70;;;;;;6246033;22;20416;-82
2023/04/07 08:45:05;;;;;;;10.70;2.97;;;18.60;73.90;;;;;;6269654;22;20417;-81
2023/04/07 08:47:32;;;;;;;4.17;2.87;;;18.40;72.40;;;;;;6269142;22;20753;-81
2023/04/07 08:50:07;;;;;;;4.20;3.10;;;16.30;76.70;;;;;;6269352;22;20441;-83
2023/04/07 08:52:35;;;;;;;8.13;3.20;;;14.90;83.90;;;;;;6271920;22;20364;-82
2023/04/07 08:55:02;;;;;;;12.10;3.57;;;14.50;90.10;;;;;;6270441;22;20397;-83
2023/04/07 08:57:30;;;;;;;6.33;2.73;;;13.90;90.80;;;;;;6244701;22;20389;-79
2023/04/07 08:59:57;;;;;;;5.00;2.87;;;13.20;93.70;;;;;;6268349;22;20418;-79
2023/04/07 09:02:22;;;;;;;5.50;2.97;;;13.80;99.90;;;;;;6273564;22;20375;-82
2023/04/07 09:04:48;;;;;;;7.70;3.40;;;15.40;97.40;;;;;;6268411;22;20388;-81
2023/04/07 09:07:14;;;;;;;6.90;2.80;;;15.50;94.90;;;;;;6270521;22;20202;-81
2023/04/07 09:09:40;;;;;;;5.50;3.37;;;15.30;96.70;;;;;;6274138;22;20180;-81
2023/04/07 09:12:05;;;;;;;10.30;3.00;;;14.90;98.60;;;;;;6275673;22;20375;-82
2023/04/07 09:14:31;;;;;;;4.10;2.63;;;14.80;96.00;;;;;;6276084;22;20139;-82
2023/04/07 09:16:58;;;;;;;5.60;3.00;;;15.50;97.20;;;;;;6275701;22;20194;-81
2023/04/07 09:19:26;;;;;;;2.90;2.50;;;16.20;95.70;;;;;;6276305;22;20167;-81
2023/04/07 09:21:52;;;;;;;7.00;4.73;;;17.30;93.90;;;;;;6248603;22;20378;-81
2023/04/07 09:24:28;;;;;;;7.10;5.33;;;19.40;92.00;;;;;;6276221;22;20390;-81
2023/04/07 09:27:17;;;;;;;9.20;5.90;;;20.40;87.30;;;;;;6275469;22;20369;-81
2023/04/07 09:29:47;;;;;;;7.27;4.87;;;19.80;82.50;;;;;;6275949;22;20501;-80
2023/04/07 09:32:34;;;;;;;7.30;4.70;;;18.10;86.40;;;;;;6276043;22;20412;-80
2023/04/07 09:35:00;;;;;;;9.20;4.97;;;16.70;87.40;;;;;;6275137;22;20774;-80
2023/04/07 09:37:25;;;;;;;10.87;5.33;;;15.90;90.30;;;;;;6248718;22;20385;-80
2023/04/07 09:39:55;;;;;;;8.13;5.20;;;15.60;92.50;;;;;;6275672;22;20174;-79
2023/04/07 09:42:21;;;;;;;9.20;6.47;;;15.70;93.40;;;;;;6275459;22;20195;-80
2023/04/07 09:44:46;;;;;;;7.80;5.53;;;15.80;94.10;;;;;;6275135;22;20844;-80
2023/04/07 09:47:12;;;;;;;7.60;4.57;;;15.60;93.80;;;;;;6275611;22;20362;-80
2023/04/07 09:49:52;;;;;;;9.30;5.37;;;15.20;93.50;;;;;;6274290;22;20674;-79
2023/04/07 09:52:19;;;;;;;7.00;4.67;;;15.30;94.20;;;;;;6276405;22;20151;-80
2023/04/07 09:54:46;;;;;;;4.77;4.33;;;15.10;93.70;;;;;;6274116;22;20405;-79
2023/04/07 09:57:17;;;;;;;7.57;4.90;;;14.80;95.90;;;;;;6275046;22;20367;-80
2023/04/07 09:59:43;;;;;;;10.30;6.03;;;14.70;98.00;;;;;;6273200;22;20410;-79
2023/04/07 10:02:10;;;;;;;8.53;5.70;;;14.20;99.90;;;;;;6276332;22;20382;-80
2023/04/07 10:04:37;;;;;;;9.17;5.70;;;14.30;99.90;;;;;;6273935;22;20370;-80
2023/04/07 10:07:04;;;;;;;6.97;5.07;;;14.50;99.90;;;;;;6274984;22;20412;-80
2023/04/07 10:09:30;;;;;;;8.20;5.93;;;14.50;99.90;;;;;;6274108;22;20425;-81
2023/04/07 10:11:58;;;;;;;9.37;3.87;;;14.90;99.90;;;;;;6275128;22;20370;-80
2023/04/07 10:14:28;;;;;;;6.77;4.67;;;15.40;99.60;;;;;;6276057;22;20972;-80
2023/04/07 10:16:54;;;;;;;4.23;3.70;;;16.80;98.90;;;;;;6274566;22;20391;-80
2023/04/07 10:19:20;;;;;;;4.33;3.70;;;18.30;95.60;;;;;;6269527;22;20471;-80
2023/04/07 10:21:50;;;;;;;5.93;3.97;;;18.60;93.00;;;;;;6273307;22;20178;-80
2023/04/07 10:24:53;;;;;;;9.50;6.63;;;19.10;90.60;;;;;;6269746;22;20366;-80
2023/04/07 10:27:28;;;;;;;9.70;5.70;;;18.80;91.00;;;;;;6193409;22;20455;-81
2023/04/07 10:29:54;;;;;;;10.47;6.20;;;18.00;90.90;;;;;;6272972;22;20410;-80
2023/04/07 10:32:20;;;;;;;8.50;6.40;;;16.80;93.10;;;;;;6272955;22;20367;-81
2023/04/07 10:34:54;;;;;;;8.70;6.47;;;16.80;93.40;;;;;;6272352;22;20402;-81
2023/04/07 10:37:21;;;;;;;9.80;7.20;;;16.00;94.20;;;;;;6271429;22;20148;-80
2023/04/07 10:39:51;;;;;;;8.53;6.50;;;15.40;96.00;;;;;;6272529;22;20983;-81
2023/04/07 10:42:44;;;;;;;9.60;6.90;;;14.70;97.40;;;;;;6271627;22;20734;-80
2023/04/07 10:45:11;;;;;;;9.40;6.90;;;14.00;99.20;;;;;;6270805;22;20417;-81
2023/04/07 10:48:02;;;;;;;9.35;6.60;;;13.50;99.90;;;;;;6272491;22;20376;-81
2023/04/07 10:50:28;;;;;;;10.38;8.27;;;12.60;99.90;;;;;;6271491;22;20439;-80
2023/04/07 10:53:13;;;;;;;12.10;8.07;;;11.80;99.90;;;;;;6272436;22;20167;-80
2023/04/07 10:55:40;;;;;;;11.73;8.48;;;11.30;99.90;;;;;;6270219;22;20602;-80
2023/04/07 10:58:27;;;;;;;14.13;9.15;;;10.90;99.90;;;;;;6274051;22;20178;-81
2023/04/07 11:00:56;;;;;;;14.60;9.73;;;10.70;99.90;;;;;;6274321;22;20727;-80
2023/04/07 11:03:23;;;;;;;18.58;9.32;;;10.50;99.90;;;;;;6273374;22;20148;-80
2023/04/07 11:05:48;;;;;;;13.32;9.13;;;10.50;99.90;;;;;;6273182;22;20154;-81
2023/04/07 11:08:14;;;;;;;13.63;8.67;;;10.50;99.90;;;;;;6274431;22;20148;-80
2023/04/07 11:10:46;;;;;;;14.30;9.00;;;10.50;99.90;;;;;;6273410;22;20176;-80
2023/04/07 11:13:11;;;;;;;13.75;8.75;;;10.70;99.90;;;;;;6281847;22;20190;-83
2023/04/07 11:15:37;;;;;;;10.87;7.80;;;11.40;99.90;;;;;;6287880;22;20144;-83
2023/04/07 11:18:15;;;;;;;10.93;8.70;;;11.40;99.90;;;;;;6287983;22;20211;-82
2023/04/07 11:20:42;;;;;;;19.55;8.88;;;11.60;99.90;;;;;;6286872;22;20235;-82
2023/04/07 11:23:09;;;;;;;11.30;8.45;;;11.70;99.90;;;;;;6288796;22;20155;-83
2023/04/07 11:25:35;;;;;;;12.93;9.38;;;12.00;99.90;;;;;;6260190;22;20181;-82
2023/04/07 11:28:02;;;;;;;10.73;7.97;;;12.70;99.90;;;;;;6288208;22;20193;-82
2023/04/07 11:30:28;;;;;;;12.05;8.27;;;13.50;99.90;;;;;;6288658;22;20251;-83
2023/04/07 11:32:55;;;;;;;14.20;8.20;;;13.70;99.90;;;;;;6287630;22;20148;-82
2023/04/07 11:35:22;;;;;;;12.68;6.60;;;15.00;99.90;;;;;;6286780;22;20210;-82
2023/04/07 11:37:48;;;;;;;12.07;8.25;;;13.80;99.90;;;;;;6288327;22;20168;-81
2023/04/07 11:40:34;;;;;;;8.50;6.43;;;14.00;99.90;;;;;;6262807;22;20175;-82
2023/04/07 11:43:01;;;;;;;8.98;5.90;;;14.20;99.90;;;;;;6288714;22;20152;-82
2023/04/07 11:45:26;;;;;;;13.47;7.43;;;14.20;99.90;;;;;;6288020;22;20177;-81
2023/04/07 11:47:52;;;;;;;8.63;6.57;;;14.20;99.90;;;;;;6288235;22;20838;-82
2023/04/07 11:50:37;;;;;;;10.40;8.00;;;14.40;99.90;;;;;;6288877;22;20176;-82
2023/04/07 11:53:03;;;;;;;13.60;8.07;;;14.20;99.90;;;;;;6289682;22;20154;-82
2023/04/07 11:55:29;;;;;;;11.77;7.27;;;13.80;99.90;;;;;;6286219;22;20394;-81
2023/04/07 11:57:54;;;;;;;10.57;7.47;;;13.20;99.90;;;;;;6286823;22;20159;-82
2023/04/07 12:00:20;;;;;;;13.00;7.20;;;12.90;99.90;;;;;;6281276;22;20187;-82
2023/04/07 12:02:46;;;;;;;11.67;7.07;;;12.90;99.90;;;;;;6255498;23;20156;-83
2023/04/07 12:05:11;;;;;;;8.47;6.00;;;13.00;99.90;;;;;;6280620;22;20184;-82
2023/04/07 12:07:39;;;;;;;12.97;6.97;;;13.30;99.90;;;;;;6280175;22;20163;-82
2023/04/07 12:10:18;;;;;;;10.15;6.30;;;13.60;99.90;;;;;;6258662;22;20422;-81
2023/04/07 12:12:45;;;;;;;7.80;5.65;;;13.90;99.90;;;;;;6255372;23;20828;-81
2023/04/07 12:15:11;;;;;;;9.15;6.10;;;14.40;99.90;;;;;;6257279;23;20156;-83
2023/04/07 12:17:36;;;;;;;7.50;5.67;;;14.70;99.90;;;;;;6279417;22;20156;-83
2023/04/07 12:20:02;;;;;;;7.93;5.63;;;15.20;99.90;;;;;;6250304;23;20249;-82
2023/04/07 12:22:28;;;;;;;9.67;5.80;;;15.80;99.90;;;;;;6251040;22;20183;-83
2023/04/07 12:24:53;;;;;;;10.00;6.20;;;16.30;99.90;;;;;;6273656;22;20156;-84
2023/04/07 12:27:19;;;;;;;5.97;5.00;;;16.70;99.90;;;;;;6255498;23;20144;-84
2023/04/07 12:29:44;;;;;;;11.00;6.50;;;16.80;99.90;;;;;;6277987;22;20191;-84
2023/04/07 12:32:10;;;;;;;9.10;5.50;;;17.00;99.90;;;;;;6279070;22;20672;-83
2023/04/07 12:34:36;;;;;;;6.13;5.27;;;17.40;99.90;;;;;;6249728;23;20627;-83
2023/04/07 12:37:02;;;;;;;6.97;5.60;;;17.70;99.90;;;;;;6253275;22;20135;-83
2023/04/07 12:39:27;;;;;;;6.47;4.50;;;17.70;99.90;;;;;;6279195;22;20482;-83
2023/04/07 12:41:53;;;;;;;9.93;5.53;;;;;;;;;;6253002;23;20168;-84
2023/04/07 12:44:19;;;;;;;8.47;5.70;;;17.80;99.40;;;;;;6255122;23;20171;-84